createdAt,value
2022-08-17T00:00:49.208Z,31.40
2022-08-17T00:01:52.261Z,32.50
2022-08-17T00:02:42.868Z,31.10
2022-08-17T00:03:40.400Z,34.50
2022-08-17T00:04:40.200Z,36.30
2022-08-17T00:05:40.136Z,32.20
2022-08-17T00:06:40.663Z,26.80
2022-08-17T00:07:40.201Z,26.10
2022-08-17T00:08:40.152Z,25.10
2022-08-17T00:09:40.027Z,24.80
2022-08-17T00:10:40.129Z,23.70
2022-08-17T00:11:40.124Z,24.10
2022-08-17T00:12:43.237Z,24.30
2022-08-17T00:13:40.312Z,42.20
2022-08-17T00:14:40.266Z,57.10
2022-08-17T00:15:40.035Z,50.40
2022-08-17T00:16:50.448Z,41.40
2022-08-17T00:17:40.067Z,33.50
2022-08-17T00:18:53.867Z,30.90
2022-08-17T00:19:40.127Z,26.10
2022-08-17T00:20:40.033Z,26.50
2022-08-17T00:22:10.643Z,26.80
2022-08-17T00:22:40.350Z,27.70
2022-08-17T00:23:44.416Z,26.70
2022-08-17T00:24:40.272Z,28.60
2022-08-17T00:25:39.946Z,26.60
2022-08-17T00:26:45.130Z,31.10
2022-08-17T00:27:39.998Z,29.00
2022-08-17T00:28:39.923Z,27.40
2022-08-17T00:29:40.047Z,29.80
2022-08-17T00:30:51.051Z,32.90
2022-08-17T00:31:40.020Z,30.10
2022-08-17T00:33:11.613Z,27.60
2022-08-17T00:33:39.650Z,26.90
2022-08-17T00:34:39.669Z,24.10
2022-08-17T00:35:39.878Z,24.10
2022-08-17T00:36:39.651Z,22.60
2022-08-17T00:37:39.605Z,23.10
2022-08-17T00:38:39.800Z,23.00
2022-08-17T00:39:39.656Z,22.50
2022-08-17T00:40:44.460Z,23.30
2022-08-17T00:41:42.198Z,26.30
2022-08-17T00:42:39.590Z,31.40
2022-08-17T00:43:39.569Z,45.50
2022-08-17T00:44:39.699Z,72.90
2022-08-17T00:45:39.516Z,203.70
2022-08-17T00:46:39.549Z,83.50
2022-08-17T00:47:39.588Z,56.00
2022-08-17T00:48:39.605Z,66.90
2022-08-17T00:49:39.507Z,65.50
2022-08-17T00:50:39.490Z,54.20
2022-08-17T00:51:39.526Z,54.80
2022-08-17T00:52:40.449Z,93.60
2022-08-17T00:53:39.510Z,313.20
2022-08-17T00:54:41.909Z,67.20
2022-08-17T00:55:39.498Z,35.40
2022-08-17T00:56:39.394Z,33.50
2022-08-17T00:57:39.389Z,34.80
2022-08-17T00:58:39.371Z,33.80
2022-08-17T00:59:39.347Z,34.40
2022-08-17T01:00:39.452Z,31.80
2022-08-17T01:01:39.384Z,31.40
2022-08-17T01:02:42.299Z,33.60
2022-08-17T01:03:39.327Z,35.70
2022-08-17T01:04:39.333Z,40.00
2022-08-17T01:05:42.339Z,36.60
2022-08-17T01:06:39.529Z,41.10
2022-08-17T01:07:39.298Z,48.70
2022-08-17T01:08:39.268Z,62.50
2022-08-17T01:09:39.233Z,123.00
2022-08-17T01:10:57.186Z,93.00
2022-08-17T01:11:39.270Z,58.00
2022-08-17T01:12:39.287Z,74.10
2022-08-17T01:13:41.179Z,299.50
2022-08-17T01:14:39.172Z,269.80
2022-08-17T01:15:39.244Z,137.40
2022-08-17T01:16:39.154Z,69.90
2022-08-17T01:17:39.147Z,75.10
2022-08-17T01:18:39.169Z,52.80
2022-08-17T01:19:39.154Z,59.00
2022-08-17T01:20:43.088Z,137.10
2022-08-17T01:21:39.105Z,57.30
2022-08-17T01:22:39.081Z,34.20
2022-08-17T01:23:39.104Z,31.60
2022-08-17T01:24:39.095Z,29.30
2022-08-17T01:25:39.056Z,30.40
2022-08-17T01:26:39.073Z,31.00
2022-08-17T01:27:39.045Z,33.50
2022-08-17T01:28:54.136Z,72.60
2022-08-17T01:29:39.019Z,157.40
2022-08-17T01:30:58.856Z,53.10
2022-08-17T01:31:39.535Z,36.50
2022-08-17T01:32:38.975Z,37.50
2022-08-17T01:33:38.969Z,73.20
2022-08-17T01:34:43.510Z,41.90
2022-08-17T01:35:38.949Z,31.80
2022-08-17T01:36:38.990Z,35.00
2022-08-17T01:37:38.941Z,41.80
2022-08-17T01:38:39.040Z,49.70
2022-08-17T01:39:39.956Z,50.50
2022-08-17T01:40:38.885Z,47.60
2022-08-17T01:41:38.874Z,45.70
2022-08-17T01:42:38.901Z,42.80
2022-08-17T01:43:38.890Z,39.80
2022-08-17T01:44:38.858Z,39.10
2022-08-17T01:45:38.830Z,38.40
2022-08-17T01:46:38.810Z,38.30
2022-08-17T01:47:38.810Z,38.40
2022-08-17T01:48:38.832Z,120.00
2022-08-17T01:49:39.496Z,116.00
2022-08-17T01:50:38.770Z,109.20
2022-08-17T01:51:39.016Z,230.00
2022-08-17T01:52:38.739Z,198.00
2022-08-17T01:53:38.760Z,406.50
2022-08-17T01:54:38.786Z,776.40
2022-08-17T01:55:38.705Z,449.30
2022-08-17T01:56:38.703Z,115.40
2022-08-17T01:57:38.688Z,99.20
2022-08-17T01:58:38.722Z,182.00
2022-08-17T01:59:38.674Z,121.30
2022-08-17T02:01:00.875Z,50.50
2022-08-17T02:01:38.827Z,50.80
2022-08-17T02:02:38.641Z,57.10
2022-08-17T02:03:38.622Z,50.50
2022-08-17T02:04:38.664Z,50.10
2022-08-17T02:05:38.625Z,134.80
2022-08-17T02:06:52.431Z,179.80
2022-08-17T02:07:59.720Z,254.20
2022-08-17T02:08:43.196Z,93.60
2022-08-17T02:09:39.496Z,59.80
2022-08-17T02:10:38.606Z,51.00
2022-08-17T02:11:38.536Z,47.60
2022-08-17T02:12:39.881Z,49.30
2022-08-17T02:13:39.367Z,53.00
2022-08-17T02:14:38.502Z,64.50
2022-08-17T02:15:38.547Z,184.00
2022-08-17T02:16:38.467Z,172.70
2022-08-17T02:17:38.503Z,233.30
2022-08-17T02:18:38.506Z,95.70
2022-08-17T02:19:39.012Z,79.00
2022-08-17T02:20:41.985Z,63.50
2022-08-17T02:21:38.428Z,78.90
2022-08-17T02:22:38.425Z,62.30
2022-08-17T02:23:38.422Z,59.90
2022-08-17T02:24:58.834Z,58.50
2022-08-17T02:25:38.395Z,57.70
2022-08-17T02:26:38.350Z,55.80
2022-08-17T02:27:38.377Z,55.30
2022-08-17T02:28:38.328Z,44.80
2022-08-17T02:29:38.326Z,41.40
2022-08-17T02:30:59.406Z,41.60
2022-08-17T02:31:38.307Z,43.80
2022-08-17T02:32:38.291Z,45.40
2022-08-17T02:33:42.911Z,42.30
2022-08-17T02:34:38.286Z,41.90
2022-08-17T02:35:38.327Z,40.90
2022-08-17T02:36:38.303Z,41.50
2022-08-17T02:37:38.228Z,41.70
2022-08-17T02:38:38.241Z,42.80
2022-08-17T02:39:38.327Z,42.80
2022-08-17T02:40:38.210Z,40.60
2022-08-17T02:41:38.188Z,39.90
2022-08-17T02:42:38.228Z,37.80
2022-08-17T02:43:38.210Z,38.80
2022-08-17T02:44:39.908Z,40.50
2022-08-17T02:45:38.161Z,46.30
2022-08-17T02:46:38.151Z,52.20
2022-08-17T02:47:38.131Z,56.30
2022-08-17T02:48:38.162Z,70.30
2022-08-17T02:49:38.106Z,165.60
2022-08-17T02:50:38.081Z,49.70
2022-08-17T02:51:38.075Z,42.20
2022-08-17T02:52:42.322Z,40.60
2022-08-17T02:53:38.065Z,41.80
2022-08-17T02:54:41.340Z,45.40
2022-08-17T02:55:38.047Z,44.90
2022-08-17T02:56:40.013Z,45.80
2022-08-17T02:57:38.019Z,46.30
2022-08-17T02:58:38.005Z,44.00
2022-08-17T02:59:37.992Z,39.30
2022-08-17T03:00:38.009Z,36.50
2022-08-17T03:01:38.054Z,34.40
2022-08-17T03:02:37.961Z,50.50
2022-08-17T03:03:37.995Z,38.90
2022-08-17T03:04:37.936Z,37.50
2022-08-17T03:05:37.917Z,49.30
2022-08-17T03:06:37.933Z,47.80
2022-08-17T03:07:38.529Z,43.50
2022-08-17T03:08:39.491Z,38.70
2022-08-17T03:09:37.868Z,56.40
2022-08-17T03:10:37.867Z,36.20
2022-08-17T03:11:37.847Z,35.90
2022-08-17T03:12:37.872Z,35.90
2022-08-17T03:13:37.855Z,43.70
2022-08-17T03:14:41.308Z,49.60
2022-08-17T03:15:37.815Z,36.30
2022-08-17T03:16:37.889Z,33.80
2022-08-17T03:17:37.828Z,35.70
2022-08-17T03:18:37.904Z,33.80
2022-08-17T03:19:39.640Z,36.50
2022-08-17T03:20:37.856Z,46.00
2022-08-17T03:21:38.063Z,43.40
2022-08-17T03:22:52.964Z,48.70
2022-08-17T03:23:37.750Z,56.70
2022-08-17T03:24:38.443Z,70.80
2022-08-17T03:25:37.777Z,48.50
2022-08-17T03:26:37.993Z,55.70
2022-08-17T03:27:37.814Z,51.30
2022-08-17T03:28:37.681Z,47.00
2022-08-17T03:29:38.385Z,42.50
2022-08-17T03:30:37.901Z,44.80
2022-08-17T03:31:38.709Z,44.10
2022-08-17T03:32:37.709Z,43.20
2022-08-17T03:33:37.625Z,42.90
2022-08-17T03:34:37.677Z,43.20
2022-08-17T03:35:37.661Z,82.90
2022-08-17T03:36:37.689Z,45.20
2022-08-17T03:37:37.561Z,41.20
2022-08-17T03:38:38.981Z,39.90
2022-08-17T03:39:37.596Z,42.00
2022-08-17T03:40:58.204Z,38.10
2022-08-17T03:41:37.529Z,34.70
2022-08-17T03:42:37.535Z,35.90
2022-08-17T03:43:38.536Z,33.60
2022-08-17T03:44:37.549Z,34.80
2022-08-17T03:45:37.458Z,34.30
2022-08-17T03:46:37.452Z,33.10
2022-08-17T03:47:37.440Z,32.10
2022-08-17T03:48:37.509Z,30.50
2022-08-17T03:49:37.451Z,31.70
2022-08-17T03:50:37.410Z,30.80
2022-08-17T03:51:37.404Z,33.50
2022-08-17T03:52:37.397Z,29.90
2022-08-17T03:53:37.376Z,34.90
2022-08-17T03:54:37.412Z,38.40
2022-08-17T03:55:37.355Z,58.40
2022-08-17T03:56:37.854Z,52.60
2022-08-17T03:57:37.325Z,60.80
2022-08-17T03:58:37.321Z,63.50
2022-08-17T03:59:37.315Z,77.40
2022-08-17T04:00:39.729Z,75.50
2022-08-17T04:01:37.308Z,150.50
2022-08-17T04:02:37.274Z,142.30
2022-08-17T04:03:38.031Z,201.80
2022-08-17T04:04:37.249Z,262.90
2022-08-17T04:05:37.288Z,65.70
2022-08-17T04:06:37.299Z,42.40
2022-08-17T04:07:37.221Z,44.80
2022-08-17T04:08:37.208Z,47.10
2022-08-17T04:09:37.192Z,52.70
2022-08-17T04:10:44.789Z,57.70
2022-08-17T04:11:37.184Z,51.70
2022-08-17T04:12:37.301Z,51.80
2022-08-17T04:13:37.144Z,46.30
2022-08-17T04:14:51.875Z,49.00
2022-08-17T04:15:37.127Z,41.70
2022-08-17T04:16:37.117Z,39.40
2022-08-17T04:17:37.112Z,42.80
2022-08-17T04:18:37.140Z,42.30
2022-08-17T04:19:37.103Z,46.00
2022-08-17T04:20:37.066Z,51.80
2022-08-17T04:21:37.063Z,63.80
2022-08-17T04:22:37.403Z,78.50
2022-08-17T04:23:37.277Z,119.70
2022-08-17T04:24:37.286Z,147.30
2022-08-17T04:25:37.224Z,183.10
2022-08-17T04:26:52.444Z,147.00
2022-08-17T04:27:37.406Z,133.60
2022-08-17T04:28:37.382Z,189.50
2022-08-17T04:29:54.217Z,222.90
2022-08-17T04:30:37.479Z,217.90
2022-08-17T04:31:37.320Z,257.20
2022-08-17T04:33:05.269Z,199.10
2022-08-17T04:33:37.268Z,264.50
2022-08-17T04:34:37.359Z,278.30
2022-08-17T04:35:37.106Z,326.10
2022-08-17T04:36:37.443Z,331.20
2022-08-17T04:37:37.213Z,336.90
2022-08-17T04:38:36.884Z,332.60
2022-08-17T04:39:36.909Z,368.60
2022-08-17T04:40:36.838Z,369.40
2022-08-17T04:41:36.825Z,349.40
2022-08-17T04:42:36.911Z,237.20
2022-08-17T04:43:36.839Z,288.10
2022-08-17T04:44:38.017Z,290.10
2022-08-17T04:45:36.786Z,247.50
2022-08-17T04:46:36.775Z,333.90
2022-08-17T04:47:36.829Z,305.30
2022-08-17T04:48:37.607Z,314.70
2022-08-17T04:49:36.742Z,282.40
2022-08-17T04:50:36.755Z,286.00
2022-08-17T04:51:36.709Z,309.60
2022-08-17T04:52:43.287Z,356.00
2022-08-17T04:53:36.981Z,333.90
2022-08-17T04:54:36.744Z,445.00
2022-08-17T04:55:36.674Z,382.60
2022-08-17T04:56:36.656Z,379.80
2022-08-17T04:57:38.462Z,370.40
2022-08-17T04:58:36.662Z,402.10
2022-08-17T04:59:36.651Z,373.30
2022-08-17T05:00:36.653Z,401.70
2022-08-17T05:01:36.636Z,405.70
2022-08-17T05:02:36.636Z,427.00
2022-08-17T05:03:36.576Z,412.00
2022-08-17T05:04:36.616Z,430.10
2022-08-17T05:05:36.587Z,396.60
2022-08-17T05:06:36.595Z,393.70
2022-08-17T05:07:36.538Z,404.10
2022-08-17T05:08:36.525Z,438.50
2022-08-17T05:09:36.509Z,403.60
2022-08-17T05:10:36.543Z,427.90
2022-08-17T05:11:36.492Z,412.10
2022-08-17T05:12:36.518Z,398.40
2022-08-17T05:13:36.465Z,396.20
2022-08-17T05:14:36.713Z,432.60
2022-08-17T05:15:36.445Z,435.20
2022-08-17T05:16:36.477Z,419.30
2022-08-17T05:17:37.137Z,406.10
2022-08-17T05:18:36.682Z,429.50
2022-08-17T05:19:36.413Z,419.30
2022-08-17T05:20:36.412Z,417.10
2022-08-17T05:21:36.426Z,422.90
2022-08-17T05:22:36.937Z,453.20
2022-08-17T05:23:43.049Z,431.80
2022-08-17T05:24:38.335Z,475.90
2022-08-17T05:25:36.324Z,462.60
2022-08-17T05:26:36.426Z,457.20
2022-08-17T05:27:36.355Z,452.60
2022-08-17T05:28:42.596Z,436.20
2022-08-17T05:29:42.865Z,426.30
2022-08-17T05:30:42.262Z,412.10
2022-08-17T05:31:36.321Z,390.20
2022-08-17T05:32:39.439Z,404.40
2022-08-17T05:33:36.240Z,395.10
2022-08-17T05:34:36.250Z,408.80
2022-08-17T05:35:36.289Z,415.40
2022-08-17T05:36:43.484Z,371.30
2022-08-17T05:37:37.037Z,385.00
2022-08-17T05:38:36.179Z,360.50
2022-08-17T05:39:36.196Z,341.10
2022-08-17T05:40:36.169Z,342.40
2022-08-17T05:41:36.241Z,338.20
2022-08-17T05:42:36.164Z,297.80
2022-08-17T05:43:36.172Z,310.90
2022-08-17T05:44:36.142Z,310.00
2022-08-17T05:45:55.353Z,307.90
2022-08-17T05:46:36.208Z,304.50
2022-08-17T05:47:36.297Z,291.80
2022-08-17T05:48:39.308Z,264.00
2022-08-17T05:49:36.069Z,273.40
2022-08-17T05:50:36.117Z,263.50
2022-08-17T05:51:36.050Z,282.00
2022-08-17T05:52:36.031Z,284.80
2022-08-17T05:53:36.086Z,290.30
2022-08-17T05:54:36.068Z,269.70
2022-08-17T05:55:36.056Z,253.50
2022-08-17T05:56:35.995Z,251.60
2022-08-17T05:57:35.964Z,254.00
2022-08-17T05:58:36.003Z,264.90
2022-08-17T05:59:36.031Z,254.20
2022-08-17T06:00:35.938Z,252.90
2022-08-17T06:01:35.979Z,262.70
2022-08-17T06:02:35.918Z,258.20
2022-08-17T06:03:35.903Z,258.80
2022-08-17T06:04:35.888Z,266.20
2022-08-17T06:05:35.935Z,264.30
2022-08-17T06:06:35.863Z,282.40
2022-08-17T06:07:35.881Z,334.10
2022-08-17T06:08:35.848Z,276.10
2022-08-17T06:09:35.830Z,304.60
2022-08-17T06:10:35.831Z,295.50
2022-08-17T06:11:35.925Z,336.60
2022-08-17T06:12:35.795Z,261.10
2022-08-17T06:13:35.780Z,282.90
2022-08-17T06:14:35.775Z,311.50
2022-08-17T06:15:35.768Z,344.50
2022-08-17T06:16:35.759Z,364.00
2022-08-17T06:17:36.598Z,303.00
2022-08-17T06:18:35.734Z,292.50
2022-08-17T06:19:35.731Z,318.40
2022-08-17T06:20:35.706Z,247.90
2022-08-17T06:21:35.699Z,235.20
2022-08-17T06:22:35.713Z,238.00
2022-08-17T06:23:35.898Z,251.60
2022-08-17T06:24:36.037Z,223.70
2022-08-17T06:25:35.696Z,250.40
2022-08-17T06:26:39.647Z,212.50
2022-08-17T06:27:35.772Z,175.80
2022-08-17T06:28:35.730Z,157.80
2022-08-17T06:29:35.688Z,162.50
2022-08-17T06:30:58.302Z,144.40
2022-08-17T06:31:35.588Z,140.30
2022-08-17T06:32:36.843Z,124.80
2022-08-17T06:33:35.763Z,121.50
2022-08-17T06:34:35.716Z,99.70
2022-08-17T06:35:35.918Z,101.00
2022-08-17T06:36:35.760Z,94.00
2022-08-17T06:37:36.074Z,94.20
2022-08-17T06:38:37.423Z,98.80
2022-08-17T06:39:35.554Z,103.10
2022-08-17T06:40:35.528Z,106.40
2022-08-17T06:41:37.883Z,87.20
2022-08-17T06:42:54.619Z,91.00
2022-08-17T06:43:35.823Z,81.70
2022-08-17T06:44:50.093Z,85.20
2022-08-17T06:45:35.511Z,79.50
2022-08-17T06:46:35.479Z,72.10
2022-08-17T06:47:35.460Z,66.00
2022-08-17T06:48:35.553Z,54.30
2022-08-17T06:49:35.609Z,54.10
2022-08-17T06:50:35.694Z,56.00
2022-08-17T06:51:35.675Z,59.40
2022-08-17T06:52:46.310Z,52.70
2022-08-17T06:53:35.438Z,53.00
2022-08-17T06:54:35.595Z,52.30
2022-08-17T06:55:38.119Z,48.70
2022-08-17T06:56:53.884Z,47.90
2022-08-17T06:57:35.951Z,45.80
2022-08-17T06:58:35.391Z,47.30
2022-08-17T06:59:54.359Z,46.10
2022-08-17T07:00:35.330Z,46.30
2022-08-17T07:01:35.324Z,47.90
2022-08-17T07:02:52.381Z,43.70
2022-08-17T07:03:35.271Z,43.40
2022-08-17T07:04:35.264Z,39.10
2022-08-17T07:05:35.259Z,42.00
2022-08-17T07:06:37.945Z,40.30
2022-08-17T07:07:35.461Z,38.90
2022-08-17T07:08:35.550Z,40.80
2022-08-17T07:09:35.166Z,37.90
2022-08-17T07:10:35.141Z,37.40
2022-08-17T07:11:35.190Z,38.10
2022-08-17T07:12:35.121Z,38.50
2022-08-17T07:13:35.134Z,37.50
2022-08-17T07:14:35.179Z,35.50
2022-08-17T07:15:35.082Z,33.70
2022-08-17T07:16:35.070Z,33.10
2022-08-17T07:17:46.780Z,33.50
2022-08-17T07:18:35.067Z,33.60
2022-08-17T07:19:35.085Z,34.40
2022-08-17T07:20:35.020Z,34.00
2022-08-17T07:21:35.015Z,31.30
2022-08-17T07:22:55.217Z,29.50
2022-08-17T07:23:35.032Z,29.80
2022-08-17T07:24:34.985Z,30.30
2022-08-17T07:25:35.023Z,29.70
2022-08-17T07:26:35.016Z,28.20
2022-08-17T07:27:34.953Z,28.60
2022-08-17T07:28:34.931Z,27.20
2022-08-17T07:29:34.971Z,26.80
2022-08-17T07:30:46.938Z,26.70
2022-08-17T07:31:34.922Z,26.80
2022-08-17T07:32:34.905Z,26.70
2022-08-17T07:33:34.927Z,24.10
2022-08-17T07:34:34.889Z,23.80
2022-08-17T07:35:40.895Z,24.40
2022-08-17T07:36:34.851Z,23.70
2022-08-17T07:37:34.838Z,23.30
2022-08-17T07:38:34.837Z,22.20
2022-08-17T07:39:34.911Z,22.70
2022-08-17T07:40:34.884Z,23.10
2022-08-17T07:41:53.272Z,22.00
2022-08-17T07:42:34.817Z,21.50
2022-08-17T07:43:34.774Z,20.90
2022-08-17T07:44:34.788Z,20.60
2022-08-17T07:45:34.796Z,19.00
2022-08-17T07:46:34.764Z,19.00
2022-08-17T07:47:34.818Z,18.70
2022-08-17T07:48:34.718Z,19.00
2022-08-17T07:49:34.705Z,18.70
2022-08-17T07:50:34.700Z,19.50
2022-08-17T07:51:34.760Z,19.70
2022-08-17T07:52:51.049Z,20.30
2022-08-17T07:53:34.831Z,21.20
2022-08-17T07:54:35.581Z,20.50
2022-08-17T07:55:34.650Z,20.20
2022-08-17T07:56:34.851Z,21.90
2022-08-17T07:57:34.614Z,20.10
2022-08-17T07:58:34.597Z,21.10
2022-08-17T07:59:34.663Z,21.80
2022-08-17T08:00:34.586Z,22.50
2022-08-17T08:01:39.570Z,22.10
2022-08-17T08:02:34.590Z,21.80
2022-08-17T08:03:34.648Z,21.10
2022-08-17T08:04:58.973Z,21.90
2022-08-17T08:05:50.073Z,23.50
2022-08-17T08:06:34.534Z,25.30
2022-08-17T08:07:34.564Z,24.60
2022-08-17T08:08:34.584Z,23.30
2022-08-17T08:09:34.493Z,22.60
2022-08-17T08:10:34.462Z,22.80
2022-08-17T08:11:34.513Z,23.60
2022-08-17T08:12:34.447Z,24.00
2022-08-17T08:13:34.436Z,23.30
2022-08-17T08:14:34.422Z,22.30
2022-08-17T08:15:34.436Z,21.30
2022-08-17T08:16:34.416Z,22.40
2022-08-17T08:17:34.660Z,24.20
2022-08-17T08:18:38.763Z,22.20
2022-08-17T08:19:34.375Z,20.10
2022-08-17T08:20:52.466Z,20.40
2022-08-17T08:21:34.357Z,21.70
2022-08-17T08:22:34.339Z,25.20
2022-08-17T08:23:34.392Z,22.80
2022-08-17T08:24:34.350Z,23.60
2022-08-17T08:25:34.335Z,23.00
2022-08-17T08:26:34.286Z,23.70
2022-08-17T08:27:34.272Z,21.90
2022-08-17T08:28:34.309Z,21.50
2022-08-17T08:29:34.328Z,20.20
2022-08-17T08:30:34.239Z,19.90
2022-08-17T08:31:36.710Z,19.60
2022-08-17T08:32:34.223Z,19.50
2022-08-17T08:33:34.226Z,25.50
2022-08-17T08:34:58.817Z,21.60
2022-08-17T08:35:34.253Z,21.00
2022-08-17T08:37:14.761Z,21.90
2022-08-17T08:37:39.100Z,18.90
2022-08-17T08:38:34.201Z,20.80
2022-08-17T08:39:34.197Z,19.10
2022-08-17T08:40:34.128Z,19.70
2022-08-17T08:41:34.434Z,19.70
2022-08-17T08:42:34.143Z,18.60
2022-08-17T08:43:34.251Z,18.50
2022-08-17T08:45:00.350Z,18.60
2022-08-17T08:45:34.585Z,18.80
2022-08-17T08:46:34.066Z,18.90
2022-08-17T08:47:46.249Z,19.00
2022-08-17T08:48:52.828Z,18.70
2022-08-17T08:50:02.177Z,19.10
2022-08-17T08:50:37.344Z,25.40
2022-08-17T08:51:34.002Z,20.00
2022-08-17T08:52:33.991Z,20.50
2022-08-17T08:53:34.052Z,21.50
2022-08-17T08:54:33.974Z,20.10
2022-08-17T08:55:33.985Z,20.20
2022-08-17T08:56:33.940Z,20.30
2022-08-17T08:57:34.683Z,20.70
2022-08-17T08:58:42.107Z,19.30
2022-08-17T08:59:33.973Z,21.20
2022-08-17T09:00:33.918Z,19.50
2022-08-17T09:01:33.954Z,20.40
2022-08-17T09:02:34.878Z,19.20
2022-08-17T09:03:51.495Z,19.60
2022-08-17T09:04:50.012Z,19.20
2022-08-17T09:05:33.895Z,18.80
2022-08-17T09:06:39.129Z,19.60
2022-08-17T09:07:33.830Z,18.70
2022-08-17T09:08:33.825Z,17.70
2022-08-17T09:09:33.824Z,18.50
2022-08-17T09:10:33.807Z,19.70
2022-08-17T09:11:33.829Z,18.70
2022-08-17T09:12:33.765Z,20.20
2022-08-17T09:13:33.787Z,20.70
2022-08-17T09:14:45.361Z,19.80
2022-08-17T09:15:34.451Z,21.00
2022-08-17T09:16:33.897Z,23.70
2022-08-17T09:17:34.273Z,23.30
2022-08-17T09:18:59.158Z,21.00
2022-08-17T09:19:33.784Z,21.10
2022-08-17T09:20:33.749Z,20.20
2022-08-17T09:21:34.098Z,24.30
2022-08-17T09:22:33.688Z,21.10
2022-08-17T09:23:33.791Z,21.70
2022-08-17T09:24:33.739Z,21.80
2022-08-17T09:25:33.658Z,22.40
2022-08-17T09:26:33.604Z,22.40
2022-08-17T09:27:33.606Z,22.80
2022-08-17T09:28:33.588Z,22.20
2022-08-17T09:29:33.660Z,22.80
2022-08-17T09:30:33.632Z,23.00
2022-08-17T09:31:33.610Z,22.70
2022-08-17T09:32:34.490Z,23.00
2022-08-17T09:33:33.533Z,23.10
2022-08-17T09:34:33.522Z,24.60
2022-08-17T09:35:36.995Z,24.40
2022-08-17T09:36:33.535Z,24.60
2022-08-17T09:37:33.563Z,23.20
2022-08-17T09:38:33.476Z,23.50
2022-08-17T09:39:33.550Z,23.10
2022-08-17T09:40:33.492Z,23.40
2022-08-17T09:41:33.563Z,23.00
2022-08-17T09:42:33.483Z,23.10
2022-08-17T09:43:33.422Z,23.80
2022-08-17T09:44:33.408Z,24.00
2022-08-17T09:45:33.395Z,22.70
2022-08-17T09:46:33.382Z,23.80
2022-08-17T09:47:33.434Z,23.40
2022-08-17T09:48:33.473Z,23.20
2022-08-17T09:49:33.374Z,22.40
2022-08-17T09:51:04.173Z,23.00
2022-08-17T09:51:33.331Z,22.50
2022-08-17T09:52:33.332Z,21.70
2022-08-17T09:53:33.342Z,21.90
2022-08-17T09:54:40.872Z,23.50
2022-08-17T09:55:33.325Z,22.10
2022-08-17T09:56:33.322Z,22.70
2022-08-17T09:57:33.270Z,21.70
2022-08-17T09:58:33.313Z,21.60
2022-08-17T09:59:38.510Z,21.10
2022-08-17T10:00:33.269Z,20.80
2022-08-17T10:01:33.312Z,21.00
2022-08-17T10:02:33.197Z,21.40
2022-08-17T10:03:33.199Z,21.10
2022-08-17T10:04:33.181Z,21.60
2022-08-17T10:05:33.219Z,20.90
2022-08-17T10:06:33.266Z,22.80
2022-08-17T10:07:33.149Z,22.60
2022-08-17T10:08:33.166Z,21.20
2022-08-17T10:09:33.131Z,22.10
2022-08-17T10:10:33.115Z,21.40
2022-08-17T10:11:34.031Z,24.20
2022-08-17T10:12:33.105Z,22.50
2022-08-17T10:13:33.211Z,22.60
2022-08-17T10:14:38.109Z,22.30
2022-08-17T10:15:33.107Z,25.00
2022-08-17T10:16:33.061Z,22.80
2022-08-17T10:17:33.594Z,23.80
2022-08-17T10:18:33.335Z,24.70
2022-08-17T10:19:33.157Z,23.20
2022-08-17T10:20:33.021Z,25.20
2022-08-17T10:21:33.014Z,24.40
2022-08-17T10:22:35.584Z,24.40
2022-08-17T10:23:33.007Z,24.30
2022-08-17T10:24:32.962Z,24.20
2022-08-17T10:25:53.473Z,24.60
2022-08-17T10:26:46.222Z,25.10
2022-08-17T10:27:33.290Z,26.70
2022-08-17T10:28:32.902Z,26.20
2022-08-17T10:29:46.212Z,26.70
2022-08-17T10:30:32.907Z,27.80
2022-08-17T10:31:35.483Z,27.80
2022-08-17T10:32:32.877Z,27.80
2022-08-17T10:33:33.604Z,29.00
2022-08-17T10:34:38.659Z,28.80
2022-08-17T10:35:33.514Z,28.10
2022-08-17T10:36:32.837Z,27.10
2022-08-17T10:37:33.267Z,28.10
2022-08-17T10:38:32.996Z,28.90
2022-08-17T10:39:33.018Z,27.50
2022-08-17T10:40:33.601Z,27.70
2022-08-17T10:41:36.863Z,28.10
2022-08-17T10:42:33.338Z,27.50
2022-08-17T10:43:32.745Z,24.80
2022-08-17T10:44:37.877Z,26.60
2022-08-17T10:45:32.752Z,24.80
2022-08-17T10:46:32.741Z,24.80
2022-08-17T10:47:52.760Z,23.90
2022-08-17T10:48:33.076Z,23.70
2022-08-17T10:49:32.755Z,22.70
2022-08-17T10:50:34.602Z,22.90
2022-08-17T10:51:32.698Z,22.60
2022-08-17T10:52:32.653Z,22.40
2022-08-17T10:53:34.061Z,22.60
2022-08-17T10:54:33.597Z,23.00
2022-08-17T10:55:32.674Z,22.80
2022-08-17T10:56:32.640Z,23.60
2022-08-17T10:57:32.675Z,22.30
2022-08-17T10:58:32.579Z,22.30
2022-08-17T10:59:32.771Z,22.80
2022-08-17T11:00:32.580Z,22.20
2022-08-17T11:01:32.782Z,22.10
2022-08-17T11:02:32.580Z,22.30
2022-08-17T11:03:32.550Z,21.20
2022-08-17T11:04:32.532Z,20.60
2022-08-17T11:05:32.575Z,21.00
2022-08-17T11:06:32.547Z,19.70
2022-08-17T11:07:32.498Z,19.10
2022-08-17T11:08:32.491Z,18.20
2022-08-17T11:09:33.701Z,17.60
2022-08-17T11:10:32.464Z,18.30
2022-08-17T11:11:32.741Z,17.90
2022-08-17T11:12:32.417Z,17.20
2022-08-17T11:13:32.408Z,16.30
2022-08-17T11:14:34.069Z,18.20
2022-08-17T11:15:32.413Z,15.70
2022-08-17T11:16:32.410Z,15.80
2022-08-17T11:17:32.415Z,15.30
2022-08-17T11:18:32.408Z,15.40
2022-08-17T11:19:32.338Z,16.40
2022-08-17T11:20:32.345Z,14.60
2022-08-17T11:21:32.382Z,15.00
2022-08-17T11:22:33.710Z,16.10
2022-08-17T11:23:32.334Z,14.40
2022-08-17T11:24:32.320Z,15.10
2022-08-17T11:25:32.304Z,13.80
2022-08-17T11:26:33.092Z,15.10
2022-08-17T11:27:32.247Z,18.40
2022-08-17T11:28:32.240Z,16.60
2022-08-17T11:29:32.261Z,16.50
2022-08-17T11:30:32.209Z,15.30
2022-08-17T11:31:38.695Z,16.10
2022-08-17T11:32:32.219Z,13.50
2022-08-17T11:33:32.184Z,15.50
2022-08-17T11:34:32.182Z,15.70
2022-08-17T11:35:32.216Z,17.20
2022-08-17T11:36:32.171Z,15.80
2022-08-17T11:37:32.149Z,13.40
2022-08-17T11:38:32.160Z,13.20
2022-08-17T11:39:32.218Z,16.10
2022-08-17T11:40:32.148Z,16.50
2022-08-17T11:41:32.146Z,14.50
2022-08-17T11:42:32.081Z,18.60
2022-08-17T11:43:32.152Z,14.20
2022-08-17T11:44:32.076Z,17.90
2022-08-17T11:45:33.070Z,14.10
2022-08-17T11:46:32.045Z,12.70
2022-08-17T11:47:32.076Z,15.10
2022-08-17T11:48:32.283Z,14.10
2022-08-17T11:49:31.994Z,13.70
2022-08-17T11:50:31.994Z,12.30
2022-08-17T11:51:32.078Z,13.10
2022-08-17T11:52:31.977Z,11.00
2022-08-17T11:53:32.007Z,12.20
2022-08-17T11:54:33.756Z,12.10
2022-08-17T11:55:35.776Z,13.90
2022-08-17T11:56:32.009Z,16.00
2022-08-17T11:57:31.936Z,15.10
2022-08-17T11:58:31.929Z,16.60
2022-08-17T11:59:31.914Z,14.20
2022-08-17T12:00:31.881Z,14.40
2022-08-17T12:01:31.870Z,12.00
2022-08-17T12:02:32.751Z,14.70
2022-08-17T12:03:32.083Z,14.30
2022-08-17T12:04:31.936Z,14.20
2022-08-17T12:05:31.871Z,14.10
2022-08-17T12:06:31.812Z,13.70
2022-08-17T12:07:31.821Z,15.10
2022-08-17T12:08:31.822Z,13.00
2022-08-17T12:09:31.811Z,11.10
2022-08-17T12:10:31.859Z,14.60
2022-08-17T12:12:11.140Z,12.70
2022-08-17T12:12:31.758Z,12.90
2022-08-17T12:13:39.262Z,16.00
2022-08-17T12:15:05.752Z,12.90
2022-08-17T12:15:31.786Z,14.00
2022-08-17T12:16:31.696Z,13.80
2022-08-17T12:17:41.003Z,15.00
2022-08-17T12:18:31.820Z,12.50
2022-08-17T12:19:31.677Z,15.30
2022-08-17T12:20:31.719Z,14.50
2022-08-17T12:21:31.676Z,15.10
2022-08-17T12:22:31.653Z,13.20
2022-08-17T12:23:31.662Z,11.60
2022-08-17T12:24:31.742Z,16.10
2022-08-17T12:25:31.625Z,14.00
2022-08-17T12:26:31.944Z,15.50
2022-08-17T12:27:47.618Z,12.70
2022-08-17T12:28:37.624Z,14.60
2022-08-17T12:29:35.950Z,14.30
2022-08-17T12:30:33.187Z,16.30
2022-08-17T12:31:31.570Z,13.70
2022-08-17T12:32:31.559Z,14.40
2022-08-17T12:33:31.513Z,13.70
2022-08-17T12:34:31.536Z,14.10
2022-08-17T12:35:31.683Z,13.60
2022-08-17T12:36:31.704Z,12.60
2022-08-17T12:37:31.474Z,13.10
2022-08-17T12:38:33.209Z,13.10
2022-08-17T12:39:33.958Z,15.20
2022-08-17T12:40:31.505Z,14.70
2022-08-17T12:41:31.603Z,16.50
2022-08-17T12:42:31.424Z,13.30
2022-08-17T12:43:31.436Z,12.30
2022-08-17T12:44:31.484Z,14.40
2022-08-17T12:45:31.403Z,13.10
2022-08-17T12:46:31.474Z,19.00
2022-08-17T12:47:31.755Z,16.30